Terminal Aerodrome Forecast
Issued by NWS

Home | Current Version | Previous Version | Text Only | Print | Product List | Glossary On
Versions: 1 2 3 4 5 6 7 8 9 10 11 12 13 14 15 16 17 18 19
000
FTUS43 KMPX 270524
TAFRNH
TAF
KRNH 270524Z 2706/2806 13003KT P6SM SKC
     FM270900 13004KT 4SM BR SKC
      TEMPO 2709/2712 1SM BR SCT005
     FM271300 16006KT P6SM SCT050 BKN250
     FM280400 16006KT P6SM -SHRA SCT040 BKN090=

USA.gov is the U.S. government's official web portal to all federal, state and local government web resources and services.